Harle — ZCTV4 — position and weather

sailwx.info

Track history (hours):
 
Tides and Currents Weather Stations Pressure Air Temp Water Temp Dewpoint Dewpoint Depression Visibility Wind Speed Wind Dir Waves Ship Positions

Harle

Last reported at 2015-May-27 21:29 UTC. Time now 2015-May-27 21:58 UTC.
Position N 44°24' E 008°56'.

Length 45 m; draft 2.7 m.

Type: Pleasure craft. MMSI: 319323000.

Date/timePositionNaut miles runAvg speedWind from/ knotsBaromVisibWave heightAir tempDewpointWater temp
2015-May-27 21:29N 44°24' E 008°56'0 0.0
2015-May-27 20:32N 44°24' E 008°56'0 0.0
2015-May-27 19:32N 44°24' E 008°56'0 0.0
2015-May-27 18:29N 44°24' E 008°56'0 0.0
2015-May-27 17:29N 44°24' E 008°56'0 0.0
2015-May-27 16:29N 44°24' E 008°56'0 0.0
2015-May-27 15:23N 44°24' E 008°56'0 0.0
2015-May-27 14:33N 44°24' E 008°56'5 5.4
2015-May-27 13:33N 44°18' E 008°55'1212.4
2015-May-27 12:33N 44°12' E 008°40'1212.1
2015-May-27 11:31N 44°04' E 008°28'5611.2
2015-May-27 06:33N 43°41' E 007°17'1 0.3
2015-May-27 03:24N 43°42' E 007°17'0 0.0
2015-May-27 02:12N 43°42' E 007°17'0 0.0
2015-May-27 01:30N 43°42' E 007°17'0 0.0
2015-May-27 00:18N 43°42' E 007°17'0 0.0
2015-May-26 23:12N 43°42' E 007°17'0 0.0
2015-May-26 21:12N 43°42' E 007°17'0 0.0
2015-May-26 20:30N 43°42' E 007°17'0 0.0
2015-May-26 11:12N 43°42' E 007°17'0 0.0
2015-May-26 04:30N 43°42' E 007°17'0 0.0
2015-May-26 03:30N 43°42' E 007°17'0 0.0
2015-May-26 02:30N 43°42' E 007°17'0 0.0
2015-May-26 01:18N 43°42' E 007°17'0 0.0
2015-May-26 00:30N 43°42' E 007°17'0 0.0
2015-May-25 23:18N 43°42' E 007°17'0 0.0
2015-May-25 22:30N 43°42' E 007°17'0 0.0
2015-May-25 21:30N 43°42' E 007°17'0 0.0
2015-May-25 20:30N 43°42' E 007°17'0 0.0
2015-May-25 19:24N 43°42' E 007°17'0 0.0
2015-May-25 18:18N 43°42' E 007°17'0 0.0
2015-May-25 17:30N 43°42' E 007°17'0 0.0
2015-May-25 16:18N 43°42' E 007°17'0 0.0
2015-May-25 15:30N 43°42' E 007°17'0 0.0
2015-May-25 14:18N 43°42' E 007°17'0 0.0
2015-May-25 11:18N 43°42' E 007°17'0 0.0
2015-May-25 10:30N 43°42' E 007°17'0 0.0
2015-May-25 09:18N 43°42' E 007°17'0 0.0
2015-May-25 08:30N 43°42' E 007°17'0 0.0
2015-May-25 07:30N 43°42' E 007°17'0 0.0
2015-May-25 06:30N 43°42' E 007°17'0 0.0
2015-May-25 05:30N 43°42' E 007°17'0 0.0
2015-May-25 04:30N 43°42' E 007°17'0 0.0
2015-May-25 03:30N 43°42' E 007°17'0 0.0
2015-May-25 02:24N 43°42' E 007°17'0 0.0
2015-May-25 01:30N 43°42' E 007°17'0 0.0
2015-May-25 00:30N 43°42' E 007°17'0 0.0
2015-May-24 23:24N 43°42' E 007°17'0 0.0
2015-May-24 22:30N 43°42' E 007°17'0 0.0
2015-May-24 21:30N 43°42' E 007°17'0 0.0
2015-May-24 20:24N 43°42' E 007°17'0 0.0
2015-May-24 19:12N 43°42' E 007°17'0 0.0
2015-May-24 18:33N 43°42' E 007°17'2 1.8
2015-May-24 17:33N 43°40' E 007°18'12 1.2
2015-May-24 07:28N 43°29' E 007°18'  
Track history (hours):
 
Tides and Currents Weather Stations Pressure Air Temp Water Temp Dewpoint Dewpoint Depression Visibility Wind Speed Wind Dir Waves Ship Positions

Harle

Last reported at 2015-May-27 21:29 UTC. Time now 2015-May-27 21:58 UTC.
Position N 44°24' E 008°56'.

Length 45 m; draft 2.7 m.

Type: Pleasure craft. MMSI: 319323000.

Date/timePositionNaut miles runAvg speedWind from/ knotsBaromVisibWave heightAir tempDewpointWater temp
2015-May-27 21:29N 44°24' E 008°56'0 0.0
2015-May-27 20:32N 44°24' E 008°56'0 0.0
2015-May-27 19:32N 44°24' E 008°56'0 0.0
2015-May-27 18:29N 44°24' E 008°56'0 0.0
2015-May-27 17:29N 44°24' E 008°56'0 0.0
2015-May-27 16:29N 44°24' E 008°56'0 0.0
2015-May-27 15:23N 44°24' E 008°56'0 0.0
2015-May-27 14:33N 44°24' E 008°56'5 5.4
2015-May-27 13:33N 44°18' E 008°55'1212.4
2015-May-27 12:33N 44°12' E 008°40'1212.1
2015-May-27 11:31N 44°04' E 008°28'5611.2
2015-May-27 06:33N 43°41' E 007°17'1 0.3
2015-May-27 03:24N 43°42' E 007°17'0 0.0
2015-May-27 02:12N 43°42' E 007°17'0 0.0
2015-May-27 01:30N 43°42' E 007°17'0 0.0
2015-May-27 00:18N 43°42' E 007°17'0 0.0
2015-May-26 23:12N 43°42' E 007°17'0 0.0
2015-May-26 21:12N 43°42' E 007°17'0 0.0
2015-May-26 20:30N 43°42' E 007°17'0 0.0
2015-May-26 11:12N 43°42' E 007°17'0 0.0
2015-May-26 04:30N 43°42' E 007°17'0 0.0
2015-May-26 03:30N 43°42' E 007°17'0 0.0
2015-May-26 02:30N 43°42' E 007°17'0 0.0
2015-May-26 01:18N 43°42' E 007°17'0 0.0
2015-May-26 00:30N 43°42' E 007°17'0 0.0
2015-May-25 23:18N 43°42' E 007°17'0 0.0
2015-May-25 22:30N 43°42' E 007°17'0 0.0
2015-May-25 21:30N 43°42' E 007°17'0 0.0
2015-May-25 20:30N 43°42' E 007°17'0 0.0
2015-May-25 19:24N 43°42' E 007°17'0 0.0
2015-May-25 18:18N 43°42' E 007°17'0 0.0
2015-May-25 17:30N 43°42' E 007°17'0 0.0
2015-May-25 16:18N 43°42' E 007°17'0 0.0
2015-May-25 15:30N 43°42' E 007°17'0 0.0
2015-May-25 14:18N 43°42' E 007°17'0 0.0
2015-May-25 11:18N 43°42' E 007°17'0 0.0
2015-May-25 10:30N 43°42' E 007°17'0 0.0
2015-May-25 09:18N 43°42' E 007°17'0 0.0
2015-May-25 08:30N 43°42' E 007°17'0 0.0
2015-May-25 07:30N 43°42' E 007°17'0 0.0
2015-May-25 06:30N 43°42' E 007°17'0 0.0
2015-May-25 05:30N 43°42' E 007°17'0 0.0
2015-May-25 04:30N 43°42' E 007°17'0 0.0
2015-May-25 03:30N 43°42' E 007°17'0 0.0
2015-May-25 02:24N 43°42' E 007°17'0 0.0
2015-May-25 01:30N 43°42' E 007°17'0 0.0
2015-May-25 00:30N 43°42' E 007°17'0 0.0
2015-May-24 23:24N 43°42' E 007°17'0 0.0
2015-May-24 22:30N 43°42' E 007°17'0 0.0
2015-May-24 21:30N 43°42' E 007°17'0 0.0
2015-May-24 20:24N 43°42' E 007°17'0 0.0
2015-May-24 19:12N 43°42' E 007°17'0 0.0
2015-May-24 18:33N 43°42' E 007°17'2 1.8
2015-May-24 17:33N 43°40' E 007°18'12 1.2
2015-May-24 07:28N 43°29' E 007°18'  

Dump ship's entire track history